createdAt,value
2023-04-16T00:01:08.733Z,87
2023-04-16T00:03:57.124Z,87.3
2023-04-16T00:06:44.890Z,87.7
2023-04-16T00:09:32.474Z,87.9
2023-04-16T00:12:20.260Z,87.9
2023-04-16T00:15:07.937Z,88
2023-04-16T00:17:56.022Z,87.9
2023-04-16T00:20:43.632Z,88.2
2023-04-16T00:23:31.301Z,87.9
2023-04-16T00:26:18.836Z,88
2023-04-16T00:29:06.647Z,87.9
2023-04-16T00:31:54.480Z,88
2023-04-16T00:34:42.287Z,88
2023-04-16T00:37:29.945Z,88.6
2023-04-16T00:40:17.571Z,88.3
2023-04-16T00:43:05.204Z,89
2023-04-16T00:45:53.117Z,89.1
2023-04-16T00:48:40.745Z,88.8
2023-04-16T00:51:28.625Z,88.9
2023-04-16T00:54:16.334Z,89
2023-04-16T00:57:03.920Z,89.1
2023-04-16T00:59:51.679Z,88.8
2023-04-16T01:02:39.889Z,88.7
2023-04-16T01:05:27.721Z,88.7
2023-04-16T01:08:15.532Z,89
2023-04-16T01:11:03.193Z,88.7
2023-04-16T01:13:50.872Z,88.9
2023-04-16T01:16:38.552Z,88.8
2023-04-16T01:19:26.281Z,88.9
2023-04-16T01:22:13.912Z,88.9
2023-04-16T01:25:01.683Z,89.2
2023-04-16T01:27:49.424Z,89.1
2023-04-16T01:30:37.161Z,89.2
2023-04-16T01:33:24.890Z,89.2
2023-04-16T01:36:12.627Z,89.1
2023-04-16T01:39:00.272Z,89.2
2023-04-16T01:41:48.120Z,89.1
2023-04-16T01:44:35.832Z,89.1
2023-04-16T01:47:23.735Z,89.2
2023-04-16T01:50:11.437Z,89.4
2023-04-16T01:52:59.211Z,89.5
2023-04-16T01:55:46.747Z,89.4
2023-04-16T01:58:34.606Z,89.6
2023-04-16T02:01:22.536Z,89.7
2023-04-16T02:04:10.961Z,89.6
2023-04-16T02:06:58.805Z,89.8
2023-04-16T02:09:46.536Z,90.1
2023-04-16T02:12:34.327Z,89.8
2023-04-16T02:15:22.174Z,89.9
2023-04-16T02:18:09.831Z,90.3
2023-04-16T02:20:57.567Z,90.1
2023-04-16T02:23:45.199Z,90.4
2023-04-16T02:26:32.848Z,90.4
2023-04-16T02:29:20.554Z,90.4
2023-04-16T02:32:08.828Z,90.4
2023-04-16T02:34:56.732Z,90.5
2023-04-16T02:37:44.466Z,90.5
2023-04-16T02:40:32.250Z,90.6
2023-04-16T02:43:20.030Z,90.7
2023-04-16T02:46:07.941Z,91
2023-04-16T02:48:55.974Z,90.9
2023-04-16T02:51:43.741Z,90.9
2023-04-16T02:54:31.416Z,90.9
2023-04-16T02:57:19.104Z,90.9
2023-04-16T03:00:06.825Z,91
2023-04-16T03:02:55.008Z,91.1
2023-04-16T03:05:43.138Z,91.1
2023-04-16T03:08:30.842Z,91.2
2023-04-16T03:11:18.731Z,91.2
2023-04-16T03:14:06.449Z,91.3
2023-04-16T03:16:54.090Z,91.4
2023-04-16T03:19:41.877Z,91.4
2023-04-16T03:22:29.733Z,91.5
2023-04-16T03:25:17.376Z,91.5
2023-04-16T03:28:05.080Z,91.6
2023-04-16T03:30:52.786Z,91.6
2023-04-16T03:33:40.638Z,91.6
2023-04-16T03:36:28.322Z,91.7
2023-04-16T03:39:16.053Z,91.7
2023-04-16T03:42:03.682Z,91.7
2023-04-16T03:44:51.631Z,91.9
2023-04-16T03:47:39.420Z,91.9
2023-04-16T03:50:27.137Z,92
2023-04-16T03:53:14.736Z,92
2023-04-16T03:56:02.470Z,92.1
2023-04-16T03:58:50.281Z,92.1
2023-04-16T04:01:38.048Z,92.1
2023-04-16T04:04:26.269Z,92.1
2023-04-16T04:07:14.128Z,92.2
2023-04-16T04:10:01.977Z,92.2
2023-04-16T04:12:49.922Z,92.2
2023-04-16T04:15:37.614Z,92.4
2023-04-16T04:18:25.328Z,92.3
2023-04-16T04:21:13.054Z,92.2
2023-04-16T04:24:00.846Z,92.3
2023-04-16T04:26:48.417Z,92.2
2023-04-16T04:29:36.582Z,92.3
2023-04-16T04:32:24.570Z,92.3
2023-04-16T04:35:12.380Z,92.3
2023-04-16T04:37:59.984Z,92.3
2023-04-16T04:40:47.793Z,92.5
2023-04-16T04:43:35.525Z,92.4
2023-04-16T04:46:23.574Z,92.5
2023-04-16T04:49:11.797Z,92.5
2023-04-16T04:51:59.663Z,92.5
2023-04-16T04:54:47.378Z,92.5
2023-04-16T04:57:35.062Z,92.5
2023-04-16T05:00:22.792Z,92.5
2023-04-16T05:03:11.035Z,92.5
2023-04-16T05:05:58.816Z,92.6
2023-04-16T05:08:46.558Z,92.5
2023-04-16T05:11:34.178Z,92.6
2023-04-16T05:14:22.009Z,92.7
2023-04-16T05:17:09.691Z,92.7
2023-04-16T05:19:57.478Z,92.9
2023-04-16T05:22:45.307Z,92.9
2023-04-16T05:25:32.939Z,93.1
2023-04-16T05:28:20.541Z,93
2023-04-16T05:31:08.708Z,93.1
2023-04-16T05:33:56.500Z,93.2
2023-04-16T05:36:44.325Z,93.2
2023-04-16T05:39:32.009Z,93.2
2023-04-16T05:42:19.841Z,93.2
2023-04-16T05:45:07.493Z,93.3
2023-04-16T05:47:55.450Z,93.4
2023-04-16T05:50:43.241Z,93.4
2023-04-16T05:53:31.240Z,93.5
2023-04-16T05:56:18.956Z,93.5
2023-04-16T05:59:06.714Z,93.5
2023-04-16T06:01:54.532Z,93.5
2023-04-16T06:04:42.470Z,93.6
2023-04-16T06:07:30.171Z,93.6
2023-04-16T06:10:18.002Z,93.6
2023-04-16T06:13:05.713Z,93.6
2023-04-16T06:15:53.436Z,93.5
2023-04-16T06:18:41.145Z,93.6
2023-04-16T06:21:28.862Z,93.6
2023-04-16T06:24:16.646Z,93.5
2023-04-16T06:27:04.440Z,93.5
2023-04-16T06:30:05.338Z,93.4
2023-04-16T06:32:53.160Z,93.4
2023-04-16T06:35:40.836Z,93.4
2023-04-16T06:38:28.711Z,93.5
2023-04-16T06:41:16.342Z,93.3
2023-04-16T06:44:04.148Z,93.5
2023-04-16T06:46:52.085Z,93.4
2023-04-16T06:49:40.165Z,93.3
2023-04-16T06:52:27.832Z,93.2
2023-04-16T06:55:15.616Z,93
2023-04-16T06:58:05.913Z,93
2023-04-16T07:00:53.742Z,93
2023-04-16T07:03:42.036Z,92.9
2023-04-16T07:06:30.080Z,92.9
2023-04-16T07:09:17.709Z,92.8
2023-04-16T07:12:05.504Z,92.8
2023-04-16T07:14:53.169Z,92.7
2023-04-16T07:17:41.127Z,92.6
2023-04-16T07:20:28.790Z,92.5
2023-04-16T07:23:16.567Z,92.6
2023-04-16T07:26:04.357Z,92.6
2023-04-16T07:28:52.237Z,92.6
2023-04-16T07:31:39.923Z,92.6
2023-04-16T07:34:27.806Z,92.2
2023-04-16T07:37:15.536Z,92.1
2023-04-16T07:40:03.373Z,91.8
2023-04-16T07:42:51.082Z,91.6
2023-04-16T07:45:39.270Z,91.5
2023-04-16T07:48:28.115Z,91.4
2023-04-16T07:51:15.908Z,91.2
2023-04-16T07:54:03.770Z,90.9
2023-04-16T07:56:51.606Z,90.4
2023-04-16T07:59:51.062Z,90.2
2023-04-16T08:02:39.167Z,89.7
2023-04-16T08:05:27.358Z,89.8
2023-04-16T08:08:15.415Z,89.5
2023-04-16T08:11:03.182Z,89.4
2023-04-16T08:13:50.802Z,89
2023-04-16T08:16:38.529Z,88.8
2023-04-16T08:19:26.319Z,88.7
2023-04-16T08:22:13.996Z,88.7
2023-04-16T08:25:01.776Z,88.2
2023-04-16T08:27:49.716Z,88.5
2023-04-16T08:30:37.397Z,88.4
2023-04-16T08:33:25.388Z,87.9
2023-04-16T08:36:13.052Z,87.4
2023-04-16T08:39:00.900Z,87
2023-04-16T08:41:49.029Z,86.6
2023-04-16T08:44:36.789Z,86.2
2023-04-16T08:47:24.946Z,85.8
2023-04-16T08:50:12.699Z,86.2
2023-04-16T08:53:00.797Z,86.8
2023-04-16T08:55:48.873Z,85.5
2023-04-16T08:58:36.632Z,84.8
2023-04-16T09:01:24.473Z,84.5
2023-04-16T09:04:12.895Z,84.1
2023-04-16T09:07:00.726Z,84.6
2023-04-16T09:09:48.507Z,84.2
2023-04-16T09:12:36.194Z,84.3
2023-04-16T09:15:24.000Z,83.9
2023-04-16T09:18:11.758Z,83.9
2023-04-16T09:20:59.441Z,83.2
2023-04-16T09:23:47.069Z,83
2023-04-16T09:26:34.897Z,83
2023-04-16T09:29:22.581Z,83.4
2023-04-16T09:32:10.914Z,83.3
2023-04-16T09:34:58.668Z,83.3
2023-04-16T09:37:46.280Z,83.4
2023-04-16T09:40:33.819Z,83.2
2023-04-16T09:43:21.599Z,82.6
2023-04-16T09:46:09.314Z,81.7
2023-04-16T09:48:57.099Z,80.9
2023-04-16T09:51:44.980Z,80.9
2023-04-16T09:54:32.889Z,81.5
2023-04-16T09:57:20.671Z,81.7
2023-04-16T10:00:08.331Z,82
2023-04-16T10:02:56.174Z,82.1
2023-04-16T10:05:44.311Z,78.1
2023-04-16T10:08:32.064Z,76.6
2023-04-16T10:11:20.001Z,76
2023-04-16T10:14:07.677Z,75.4
2023-04-16T10:16:55.714Z,76.1
2023-04-16T10:19:43.479Z,74.7
2023-04-16T10:22:31.385Z,75.2
2023-04-16T10:25:19.174Z,75.3
2023-04-16T10:28:06.966Z,75.8
2023-04-16T10:30:54.786Z,75.9
2023-04-16T10:33:42.511Z,76.2
2023-04-16T10:36:36.091Z,74.8
2023-04-16T10:39:23.897Z,75.4
2023-04-16T10:42:11.721Z,75.4
2023-04-16T10:44:59.440Z,73.4
2023-04-16T10:47:47.320Z,73
2023-04-16T10:50:35.162Z,71.3
2023-04-16T10:53:22.782Z,71.1
2023-04-16T10:56:10.675Z,70.9
2023-04-16T10:58:58.403Z,70.1
2023-04-16T11:01:46.248Z,70.3
2023-04-16T11:04:34.508Z,70.7
2023-04-16T11:07:22.636Z,72
2023-04-16T11:10:10.282Z,71.1
2023-04-16T11:12:58.054Z,65.9
2023-04-16T11:15:45.879Z,66.2
2023-04-16T11:18:33.752Z,66.5
2023-04-16T11:21:21.337Z,66.2
2023-04-16T11:24:08.965Z,66.7
2023-04-16T11:26:56.713Z,67.5
2023-04-16T11:29:47.707Z,67
2023-04-16T11:32:35.528Z,66.5
2023-04-16T11:35:23.339Z,66.1
2023-04-16T11:38:11.000Z,65.3
2023-04-16T11:40:58.739Z,65.1
2023-04-16T11:43:46.359Z,64.5
2023-04-16T11:46:48.847Z,64.1
2023-04-16T11:49:36.677Z,63.3
2023-04-16T11:52:24.303Z,64.2
2023-04-16T11:55:12.091Z,64.8
2023-04-16T11:57:59.715Z,66.2
2023-04-16T12:00:51.493Z,65.7
2023-04-16T12:03:40.249Z,65.1
2023-04-16T12:06:28.079Z,63.8
2023-04-16T12:09:15.813Z,63.7
2023-04-16T12:12:03.446Z,62.8
2023-04-16T12:14:51.126Z,62.1
2023-04-16T12:17:39.254Z,62.2
2023-04-16T12:20:27.233Z,63.2
2023-04-16T12:23:14.883Z,65.7
2023-04-16T12:26:03.214Z,66.1
2023-04-16T12:28:50.859Z,64.6
2023-04-16T12:31:38.660Z,62.5
2023-04-16T12:34:49.535Z,61.5
2023-04-16T12:37:37.529Z,60.8
2023-04-16T12:40:25.186Z,58.8
2023-04-16T12:43:12.787Z,58
2023-04-16T12:46:04.093Z,58.3
2023-04-16T12:48:52.124Z,58.1
2023-04-16T12:51:39.802Z,58
2023-04-16T12:54:27.556Z,58
2023-04-16T12:57:15.215Z,57.8
2023-04-16T13:00:02.847Z,58
2023-04-16T13:02:51.112Z,58
2023-04-16T13:05:38.892Z,58.8
2023-04-16T13:08:26.400Z,59.1
2023-04-16T13:11:14.173Z,60.2
2023-04-16T13:14:01.845Z,59.7
2023-04-16T13:16:49.746Z,59.6
2023-04-16T13:19:37.697Z,59.2
2023-04-16T13:22:25.477Z,59.1
2023-04-16T13:25:13.099Z,59.2
2023-04-16T13:28:01.017Z,59
2023-04-16T13:30:48.663Z,59.5
2023-04-16T13:33:36.658Z,59.9
2023-04-16T13:36:27.869Z,60.3
2023-04-16T13:39:15.811Z,60.4
2023-04-16T13:42:03.483Z,59.8
2023-04-16T13:44:51.310Z,59.1
2023-04-16T13:47:39.066Z,59.6
2023-04-16T13:50:26.825Z,59.8
2023-04-16T13:53:14.566Z,60
2023-04-16T13:56:02.191Z,59.7
2023-04-16T13:58:49.847Z,59.6
2023-04-16T14:01:37.813Z,59.3
2023-04-16T14:04:25.684Z,59.5
2023-04-16T14:07:13.524Z,59.3
2023-04-16T14:10:01.029Z,59.3
2023-04-16T14:12:48.692Z,59.2
2023-04-16T14:15:36.281Z,58.9
2023-04-16T14:18:24.170Z,58.9
2023-04-16T14:21:11.878Z,59
2023-04-16T14:23:59.518Z,58.6
2023-04-16T14:26:47.035Z,58.6
2023-04-16T14:29:35.026Z,58.8
2023-04-16T14:32:22.833Z,58.9
2023-04-16T14:35:10.718Z,58.7
2023-04-16T14:37:58.391Z,58.9
2023-04-16T14:40:46.230Z,59
2023-04-16T14:43:33.992Z,59.3
2023-04-16T14:46:22.030Z,59.9
2023-04-16T14:49:12.637Z,60.1
2023-04-16T14:52:00.457Z,59.9
2023-04-16T14:54:48.141Z,62.1
2023-04-16T14:57:35.849Z,60.7
2023-04-16T15:00:23.617Z,59.3
2023-04-16T15:03:11.770Z,58.7
2023-04-16T15:05:59.630Z,58.7
2023-04-16T15:08:47.426Z,58.5
2023-04-16T15:11:35.098Z,58.5
2023-04-16T15:14:22.831Z,58.8
2023-04-16T15:17:10.830Z,59.3
2023-04-16T15:19:58.554Z,59.8
2023-04-16T15:22:46.089Z,60.2
2023-04-16T15:25:34.201Z,60.6
2023-04-16T15:28:21.801Z,61.1
2023-04-16T15:31:09.491Z,61.4
2023-04-16T15:33:57.287Z,61.7
2023-04-16T15:36:47.301Z,61.9
2023-04-16T15:39:34.885Z,62.1
2023-04-16T15:42:29.961Z,62.4
2023-04-16T15:45:17.513Z,62.5
2023-04-16T15:48:07.349Z,62.3
2023-04-16T15:50:55.083Z,62.4
2023-04-16T15:53:42.855Z,62.6
2023-04-16T15:56:30.416Z,62.8
2023-04-16T15:59:18.402Z,64
2023-04-16T16:02:06.343Z,64.7
2023-04-16T16:04:54.450Z,65.3
2023-04-16T16:07:42.184Z,65.8
2023-04-16T16:10:30.225Z,66.7
2023-04-16T16:13:17.859Z,67.3
2023-04-16T16:16:05.834Z,67.8
2023-04-16T16:18:53.421Z,67.9
2023-04-16T16:21:41.201Z,68.2
2023-04-16T16:24:28.755Z,69
2023-04-16T16:27:16.572Z,69.3
2023-04-16T16:30:04.224Z,69.4
2023-04-16T16:32:52.272Z,69.7
2023-04-16T16:35:39.912Z,70
2023-04-16T16:38:27.614Z,70.2
2023-04-16T16:41:15.223Z,71.4
2023-04-16T16:44:03.034Z,70.9
2023-04-16T16:46:50.968Z,71
2023-04-16T16:49:39.417Z,71.3
2023-04-16T16:52:27.180Z,71.6
2023-04-16T16:55:16.673Z,72.1
2023-04-16T16:58:05.301Z,72.5
2023-04-16T17:00:53.194Z,72.8
2023-04-16T17:03:41.537Z,73.4
2023-04-16T17:06:29.687Z,73.7
2023-04-16T17:09:17.509Z,74.9
2023-04-16T17:12:05.292Z,75.5
2023-04-16T17:14:52.981Z,76.9
2023-04-16T17:17:40.769Z,77
2023-04-16T17:20:29.719Z,77.9
2023-04-16T17:23:17.526Z,78.6
2023-04-16T17:26:05.236Z,79
2023-04-16T17:28:53.067Z,79.4
2023-04-16T17:31:41.184Z,79.8
2023-04-16T17:34:29.052Z,79.9
2023-04-16T17:37:16.674Z,80.2
2023-04-16T17:40:04.585Z,80.5
2023-04-16T17:42:52.241Z,80.8
2023-04-16T17:45:40.039Z,81.5
2023-04-16T17:48:27.861Z,81.2
2023-04-16T17:51:15.741Z,82.3
2023-04-16T17:54:03.367Z,81.6
2023-04-16T17:56:51.234Z,81.7
2023-04-16T17:59:38.756Z,81.9
2023-04-16T18:02:27.249Z,82.7
2023-04-16T18:05:15.429Z,83.4
2023-04-16T18:08:03.105Z,82.7
2023-04-16T18:10:50.837Z,82.6
2023-04-16T18:13:38.691Z,82.6
2023-04-16T18:16:26.810Z,82.6
2023-04-16T18:19:14.644Z,82.4
2023-04-16T18:22:02.393Z,82.4
2023-04-16T18:24:50.714Z,82.4
2023-04-16T18:27:38.352Z,82.4
2023-04-16T18:30:28.169Z,82.3
2023-04-16T18:33:57.753Z,82.4
2023-04-16T18:36:46.092Z,82.4
2023-04-16T18:39:33.824Z,82.4
2023-04-16T18:42:21.608Z,82.4
2023-04-16T18:45:10.103Z,82.7
2023-04-16T18:47:58.224Z,82.7
2023-04-16T18:50:46.083Z,83
2023-04-16T18:53:33.799Z,83
2023-04-16T18:56:21.417Z,82.9
2023-04-16T18:59:09.571Z,82.9
2023-04-16T19:01:57.751Z,83
2023-04-16T19:04:45.766Z,83.1
2023-04-16T19:07:33.566Z,83
2023-04-16T19:10:21.232Z,82.9
2023-04-16T19:13:08.916Z,83
2023-04-16T19:16:00.041Z,83.2
2023-04-16T19:18:47.865Z,83.1
2023-04-16T19:21:36.029Z,83.1
2023-04-16T19:24:23.739Z,83.1
2023-04-16T19:27:11.566Z,83.5
2023-04-16T19:29:59.249Z,83.7
2023-04-16T19:32:47.087Z,83.8
2023-04-16T19:35:34.734Z,83.7
2023-04-16T19:38:22.670Z,83.6
2023-04-16T19:41:10.433Z,83.6
2023-04-16T19:43:59.448Z,83.6
2023-04-16T19:46:47.253Z,83.6
2023-04-16T19:49:35.219Z,83.8
2023-04-16T19:52:22.982Z,83.9
2023-04-16T19:55:10.810Z,83.9
2023-04-16T19:57:58.615Z,84
2023-04-16T20:00:46.408Z,84.1
2023-04-16T20:03:34.564Z,84.1
2023-04-16T20:06:22.479Z,84.4
2023-04-16T20:09:10.617Z,84.3
2023-04-16T20:11:58.579Z,84.3
2023-04-16T20:14:46.202Z,84.5
2023-04-16T20:17:34.362Z,84.5
2023-04-16T20:20:21.966Z,84.6
2023-04-16T20:23:09.789Z,84.6
2023-04-16T20:25:57.471Z,84.5
2023-04-16T20:28:45.378Z,84.6
2023-04-16T20:31:45.420Z,84.7
2023-04-16T20:34:33.697Z,84.8
2023-04-16T20:37:21.358Z,85.1
2023-04-16T20:40:09.163Z,85
2023-04-16T20:42:57.024Z,85
2023-04-16T20:45:44.930Z,85.1
2023-04-16T20:48:32.636Z,85.3
2023-04-16T20:51:20.471Z,85.5
2023-04-16T20:54:08.207Z,85.3
2023-04-16T20:56:55.990Z,85.5
2023-04-16T20:59:43.646Z,85.5
2023-04-16T21:02:33.420Z,85.8
2023-04-16T21:05:22.512Z,85.8
2023-04-16T21:08:10.245Z,85.8
2023-04-16T21:10:58.236Z,85.9
2023-04-16T21:13:45.910Z,86
2023-04-16T21:16:33.852Z,86.2
2023-04-16T21:19:21.816Z,86.1
2023-04-16T21:22:09.572Z,86.3
2023-04-16T21:24:57.508Z,86.4
2023-04-16T21:27:45.244Z,86.4
2023-04-16T21:30:33.131Z,86.5
2023-04-16T21:33:20.964Z,86.5
2023-04-16T21:36:08.820Z,86.5
2023-04-16T21:38:56.484Z,86.6
2023-04-16T21:41:44.268Z,86.7
2023-04-16T21:44:32.044Z,86.8
2023-04-16T21:47:20.069Z,87.1
2023-04-16T21:50:07.770Z,87.1
2023-04-16T21:52:55.641Z,87.1
2023-04-16T21:55:43.377Z,87.1
2023-04-16T21:58:31.108Z,87.2
2023-04-16T22:01:18.836Z,87.2
2023-04-16T22:04:07.086Z,87.4
2023-04-16T22:06:55.073Z,87.5
2023-04-16T22:09:42.966Z,87.5
2023-04-16T22:12:30.589Z,87.7
2023-04-16T22:15:30.385Z,87.7
2023-04-16T22:18:18.084Z,87.8
2023-04-16T22:21:05.768Z,87.8
2023-04-16T22:23:53.321Z,87.9
2023-04-16T22:26:41.407Z,88.2
2023-04-16T22:29:29.169Z,88.1
2023-04-16T22:32:17.410Z,88.2
2023-04-16T22:35:05.355Z,88.2
2023-04-16T22:37:53.117Z,88.2
2023-04-16T22:40:41.069Z,88.3
2023-04-16T22:43:28.929Z,88.4
2023-04-16T22:46:16.731Z,88.4
2023-04-16T22:49:04.489Z,88.5
2023-04-16T22:51:52.259Z,88.5
2023-04-16T22:54:42.364Z,88.6
2023-04-16T22:57:29.883Z,88.6
2023-04-16T23:00:17.701Z,88.7
2023-04-16T23:03:05.990Z,88.7
2023-04-16T23:05:53.935Z,88.7
2023-04-16T23:08:41.711Z,88.8
2023-04-16T23:11:29.548Z,88.8
2023-04-16T23:14:17.229Z,88.9
2023-04-16T23:17:05.098Z,88.9
2023-04-16T23:19:52.844Z,88.9
2023-04-16T23:22:40.549Z,88.9
2023-04-16T23:25:28.204Z,89
2023-04-16T23:28:15.846Z,89
2023-04-16T23:31:07.200Z,89
2023-04-16T23:33:55.268Z,89
2023-04-16T23:36:42.947Z,89.1
2023-04-16T23:39:30.809Z,89.1
2023-04-16T23:42:18.623Z,89.1
2023-04-16T23:45:06.406Z,89.1
2023-04-16T23:47:54.359Z,89.1
2023-04-16T23:50:42.149Z,89.2
2023-04-16T23:53:29.932Z,89.2
2023-04-16T23:56:17.557Z,89.3
2023-04-16T23:59:05.148Z,89.3
